createdAt,value
2017-05-02T00:00:20.718Z,1002.44
2017-05-02T00:01:01.224Z,1002.41
2017-05-02T00:01:41.742Z,1002.38
2017-05-02T00:02:22.269Z,1002.43
2017-05-02T00:03:02.789Z,1002.38
2017-05-02T00:03:43.317Z,1002.41
2017-05-02T00:04:23.848Z,1002.42
2017-05-02T00:05:04.347Z,1002.46
2017-05-02T00:05:44.867Z,1002.44
2017-05-02T00:06:25.385Z,1002.44
2017-05-02T00:07:05.890Z,1002.41
2017-05-02T00:07:46.405Z,1002.44
2017-05-02T00:08:26.924Z,1002.46
2017-05-02T00:09:07.437Z,1002.45
2017-05-02T00:09:47.943Z,1002.4
2017-05-02T00:10:28.444Z,1002.48
2017-05-02T00:11:08.955Z,1002.45
2017-05-02T00:11:49.479Z,1002.43
2017-05-02T00:12:29.982Z,1002.42
2017-05-02T00:13:10.455Z,1002.44
2017-05-02T00:13:51.027Z,1002.44
2017-05-02T00:14:31.531Z,1002.45
2017-05-02T00:15:12.036Z,1002.45
2017-05-02T00:15:52.535Z,1002.43
2017-05-02T00:16:33.059Z,1002.44
2017-05-02T00:17:13.559Z,1002.45
2017-05-02T00:17:54.069Z,1002.43
2017-05-02T00:18:34.575Z,1002.37
2017-05-02T00:19:15.107Z,1002.41
2017-05-02T00:19:55.624Z,1002.41
2017-05-02T00:20:36.141Z,1002.45
2017-05-02T00:21:16.658Z,1002.42
2017-05-02T00:21:57.150Z,1002.45
2017-05-02T00:22:37.658Z,1002.48
2017-05-02T00:23:18.178Z,1002.4
2017-05-02T00:23:58.702Z,1002.44
2017-05-02T00:24:39.205Z,1002.39
2017-05-02T00:25:19.762Z,1002.4
2017-05-02T00:26:00.251Z,1002.46
2017-05-02T00:26:40.745Z,1002.48
2017-05-02T00:27:21.213Z,1002.41
2017-05-02T00:28:01.722Z,1002.41
2017-05-02T00:28:42.223Z,1002.43
2017-05-02T00:29:22.702Z,1002.51
2017-05-02T00:30:03.208Z,1002.48
2017-05-02T00:30:43.734Z,1002.47
2017-05-02T00:31:24.193Z,1002.47
2017-05-02T00:32:04.681Z,1002.48
2017-05-02T00:32:45.190Z,1002.48
2017-05-02T00:33:25.669Z,1002.48
2017-05-02T00:34:06.146Z,1002.49
2017-05-02T00:34:46.678Z,1002.49
2017-05-02T00:35:27.224Z,1002.47
2017-05-02T00:36:07.738Z,1002.44
2017-05-02T00:36:48.194Z,1002.44
2017-05-02T00:37:28.691Z,1002.49
2017-05-02T00:38:09.174Z,1002.54
2017-05-02T00:38:49.678Z,1002.43
2017-05-02T00:39:30.197Z,1002.47
2017-05-02T00:40:10.709Z,1002.46
2017-05-02T00:40:51.201Z,1002.46
2017-05-02T00:41:31.707Z,1002.5
2017-05-02T00:42:12.220Z,1002.43
2017-05-02T00:42:52.737Z,1002.47
2017-05-02T00:43:33.281Z,1002.45
2017-05-02T00:44:13.729Z,1002.52
2017-05-02T00:44:54.238Z,1002.5
2017-05-02T00:45:34.747Z,1002.53
2017-05-02T00:46:15.267Z,1002.54
2017-05-02T00:46:55.780Z,1002.51
2017-05-02T00:47:36.298Z,1002.46
2017-05-02T00:48:16.818Z,1002.46
2017-05-02T00:48:57.324Z,1002.44
2017-05-02T00:49:37.827Z,1002.43
2017-05-02T00:50:18.334Z,1002.42
2017-05-02T00:50:58.837Z,1002.42
2017-05-02T00:51:39.348Z,1002.43
2017-05-02T00:52:19.865Z,1002.43
2017-05-02T00:53:00.392Z,1002.44
2017-05-02T00:53:40.868Z,1002.43
2017-05-02T00:54:21.366Z,1002.47
2017-05-02T00:55:01.875Z,1002.5
2017-05-02T00:55:42.364Z,1002.46
2017-05-02T00:56:22.889Z,1002.48
2017-05-02T00:57:03.396Z,1002.47
2017-05-02T00:57:43.869Z,1002.47
2017-05-02T00:58:24.373Z,1002.47
2017-05-02T00:59:04.893Z,1002.44
2017-05-02T00:59:45.401Z,1002.42
2017-05-02T01:00:25.891Z,1002.41
2017-05-02T01:01:06.374Z,1002.47
2017-05-02T01:01:46.873Z,1002.42
2017-05-02T01:02:27.371Z,1002.46
2017-05-02T01:03:07.883Z,1002.45
2017-05-02T01:03:48.370Z,1002.49
2017-05-02T01:04:28.832Z,1002.43
2017-05-02T01:05:09.328Z,1002.45
2017-05-02T01:05:49.804Z,1002.43
2017-05-02T01:06:30.328Z,1002.43
2017-05-02T01:07:10.809Z,1002.41
2017-05-02T01:07:51.268Z,1002.43
2017-05-02T01:08:31.764Z,1002.4
2017-05-02T01:09:12.275Z,1002.41
2017-05-02T01:09:52.739Z,1002.43
2017-05-02T01:10:33.242Z,1002.41
2017-05-02T01:11:13.752Z,1002.41
2017-05-02T01:11:54.201Z,1002.39
2017-05-02T01:12:34.727Z,1002.36
2017-05-02T01:13:15.202Z,1002.35
2017-05-02T01:13:55.697Z,1002.38
2017-05-02T01:14:36.211Z,1002.37
2017-05-02T01:15:16.749Z,1002.35
2017-05-02T01:15:57.212Z,1002.41
2017-05-02T01:16:37.749Z,1002.36
2017-05-02T01:17:18.237Z,1002.39
2017-05-02T01:17:58.721Z,1002.33
2017-05-02T01:18:39.251Z,1002.36
2017-05-02T01:19:19.743Z,1002.34
2017-05-02T01:20:00.234Z,1002.36
2017-05-02T01:20:40.768Z,1002.35
2017-05-02T01:21:21.265Z,1002.37
2017-05-02T01:22:01.746Z,1002.38
2017-05-02T01:22:42.289Z,1002.39
2017-05-02T01:23:22.750Z,1002.41
2017-05-02T01:24:03.258Z,1002.44
2017-05-02T01:24:43.733Z,1002.4
2017-05-02T01:25:24.226Z,1002.4
2017-05-02T01:26:04.763Z,1002.43
2017-05-02T01:26:45.218Z,1002.41
2017-05-02T01:27:25.714Z,1002.39
2017-05-02T01:28:06.217Z,1002.4
2017-05-02T01:28:46.730Z,1002.38
2017-05-02T01:29:27.209Z,1002.4
2017-05-02T01:30:07.729Z,1002.45
2017-05-02T01:30:48.219Z,1002.42
2017-05-02T01:31:28.684Z,1002.37
2017-05-02T01:32:09.219Z,1002.4
2017-05-02T01:32:49.656Z,1002.4
2017-05-02T01:33:30.111Z,1002.39
2017-05-02T01:34:10.613Z,1002.4
2017-05-02T01:34:51.124Z,1002.4
2017-05-02T01:35:31.634Z,1002.42
2017-05-02T01:36:12.090Z,1002.43
2017-05-02T01:36:52.616Z,1002.44
2017-05-02T01:37:33.106Z,1002.44
2017-05-02T01:38:13.630Z,1002.39
2017-05-02T01:38:54.152Z,1002.46
2017-05-02T01:39:34.655Z,1002.41
2017-05-02T01:40:15.188Z,1002.41
2017-05-02T01:40:55.703Z,1002.4
2017-05-02T01:41:36.240Z,1002.34
2017-05-02T01:42:16.742Z,1002.32
2017-05-02T01:42:57.271Z,1002.35
2017-05-02T01:43:37.765Z,1002.28
2017-05-02T01:44:18.290Z,1002.29
2017-05-02T01:44:58.797Z,1002.34
2017-05-02T01:45:39.295Z,1002.34
2017-05-02T01:46:19.811Z,1002.29
2017-05-02T01:47:00.326Z,1002.37
2017-05-02T01:47:40.826Z,1002.27
2017-05-02T01:48:21.342Z,1002.31
2017-05-02T01:49:01.805Z,1002.31
2017-05-02T01:49:42.306Z,1002.33
2017-05-02T01:50:22.805Z,1002.3
2017-05-02T01:51:03.324Z,1002.26
2017-05-02T01:51:43.820Z,1002.25
2017-05-02T01:52:24.351Z,1002.21
2017-05-02T01:53:04.861Z,1002.28
2017-05-02T01:53:45.374Z,1002.24
2017-05-02T01:54:25.894Z,1002.24
2017-05-02T01:55:06.419Z,1002.25
2017-05-02T01:55:46.947Z,1002.29
2017-05-02T01:56:27.438Z,1002.32
2017-05-02T01:57:07.945Z,1002.26
2017-05-02T01:57:48.481Z,1002.24
2017-05-02T01:58:28.968Z,1002.24
2017-05-02T01:59:09.480Z,1002.21
2017-05-02T01:59:50.034Z,1002.25
2017-05-02T02:00:30.497Z,1002.2
2017-05-02T02:01:11.024Z,1002.2
2017-05-02T02:01:51.543Z,1002.21
2017-05-02T02:02:32.051Z,1002.23
2017-05-02T02:03:12.569Z,1002.22
2017-05-02T02:03:53.105Z,1002.19
2017-05-02T02:04:33.568Z,1002.16
2017-05-02T02:05:14.069Z,1002.19
2017-05-02T02:05:54.581Z,1002.19
2017-05-02T02:06:35.126Z,1002.23
2017-05-02T02:07:15.599Z,1002.17
2017-05-02T02:07:56.112Z,1002.16
2017-05-02T02:08:36.612Z,1002.13
2017-05-02T02:09:17.128Z,1002.17
2017-05-02T02:09:57.655Z,1002.14
2017-05-02T02:10:38.181Z,1002.11
2017-05-02T02:11:18.649Z,1002.14
2017-05-02T02:11:59.163Z,1002.13
2017-05-02T02:12:39.715Z,1002.09
2017-05-02T02:13:20.182Z,1002.08
2017-05-02T02:14:00.684Z,1002.1
2017-05-02T02:14:41.200Z,1002.14
2017-05-02T02:15:21.705Z,1002.12
2017-05-02T02:16:02.211Z,1002.08
2017-05-02T02:16:42.717Z,1002.11
2017-05-02T02:17:23.227Z,1002.09
2017-05-02T02:18:03.725Z,1002.08
2017-05-02T02:18:44.222Z,1002.07
2017-05-02T02:19:24.734Z,1002.09
2017-05-02T02:20:05.240Z,1002.06
2017-05-02T02:20:45.754Z,1002.07
2017-05-02T02:21:26.254Z,1002.09
2017-05-02T02:22:06.777Z,1002.07
2017-05-02T02:22:47.265Z,1002.05
2017-05-02T02:23:27.772Z,1002.09
2017-05-02T02:24:08.298Z,1002.02
2017-05-02T02:24:48.809Z,1002.05
2017-05-02T02:25:29.323Z,1002.03
2017-05-02T02:26:09.856Z,1002.01
2017-05-02T02:26:50.362Z,1002.06
2017-05-02T02:27:30.866Z,1002.04
2017-05-02T02:28:11.410Z,1002.04
2017-05-02T02:28:51.947Z,1001.99
2017-05-02T02:29:32.406Z,1002.03
2017-05-02T02:30:12.892Z,1002.02
2017-05-02T02:30:53.390Z,1002.02
2017-05-02T02:31:33.934Z,1002.05
2017-05-02T02:32:14.432Z,1002.03
2017-05-02T02:32:54.956Z,1002.02
2017-05-02T02:33:35.396Z,1002.07
2017-05-02T02:34:16.010Z,1002.07
2017-05-02T02:34:56.462Z,1002.1
2017-05-02T02:35:36.947Z,1002.09
2017-05-02T02:36:17.402Z,1002.04
2017-05-02T02:36:57.917Z,1002.01
2017-05-02T02:37:38.420Z,1002.03
2017-05-02T02:38:18.945Z,1002.01
2017-05-02T02:38:59.461Z,1002.03
2017-05-02T02:39:39.938Z,1002.05
2017-05-02T02:40:20.432Z,1002.02
2017-05-02T02:41:00.951Z,1002
2017-05-02T02:41:41.478Z,1002
2017-05-02T02:42:21.998Z,1001.95
2017-05-02T02:43:02.557Z,1001.98
2017-05-02T02:43:43.222Z,1001.96
2017-05-02T02:44:23.750Z,1001.94
2017-05-02T02:45:04.264Z,1001.94
2017-05-02T02:45:44.778Z,1001.94
2017-05-02T02:46:25.305Z,1001.95
2017-05-02T02:47:05.817Z,1001.92
2017-05-02T02:47:46.334Z,1001.87
2017-05-02T02:48:26.858Z,1001.91
2017-05-02T02:49:07.351Z,1001.86
2017-05-02T02:49:47.859Z,1001.91
2017-05-02T02:50:28.402Z,1001.92
2017-05-02T02:51:08.922Z,1001.92
2017-05-02T02:51:49.436Z,1001.91
2017-05-02T02:52:29.967Z,1001.89
2017-05-02T02:53:10.485Z,1001.93
2017-05-02T02:53:51.102Z,1001.94
2017-05-02T02:54:31.600Z,1001.98
2017-05-02T02:55:12.120Z,1001.93
2017-05-02T02:55:52.640Z,1001.99
2017-05-02T02:56:33.177Z,1001.95
2017-05-02T02:57:13.683Z,1001.94
2017-05-02T02:57:54.191Z,1001.99
2017-05-02T02:58:34.696Z,1001.97
2017-05-02T02:59:15.217Z,1001.94
2017-05-02T02:59:55.737Z,1001.95
2017-05-02T03:00:36.252Z,1002.01
2017-05-02T03:01:16.769Z,1002
2017-05-02T03:01:57.302Z,1001.95
2017-05-02T03:02:37.863Z,1001.93
2017-05-02T03:03:18.379Z,1001.91
2017-05-02T03:03:58.927Z,1001.98
2017-05-02T03:04:39.408Z,1001.97
2017-05-02T03:05:19.946Z,1001.93
2017-05-02T03:06:00.523Z,1001.95
2017-05-02T03:06:40.949Z,1001.9
2017-05-02T03:07:21.470Z,1001.88
2017-05-02T03:08:01.947Z,1001.82
2017-05-02T03:08:42.456Z,1001.87
2017-05-02T03:09:22.930Z,1001.84
2017-05-02T03:10:03.419Z,1001.84
2017-05-02T03:10:43.925Z,1001.83
2017-05-02T03:11:24.444Z,1001.8
2017-05-02T03:12:04.960Z,1001.82
2017-05-02T03:12:45.487Z,1001.76
2017-05-02T03:13:26.002Z,1001.77
2017-05-02T03:14:06.500Z,1001.79
2017-05-02T03:14:47.006Z,1001.78
2017-05-02T03:15:27.540Z,1001.74
2017-05-02T03:16:08.077Z,1001.79
2017-05-02T03:16:48.587Z,1001.82
2017-05-02T03:17:29.098Z,1001.8
2017-05-02T03:18:09.642Z,1001.79
2017-05-02T03:18:50.144Z,1001.77
2017-05-02T03:19:30.651Z,1001.76
2017-05-02T03:20:11.183Z,1001.75
2017-05-02T03:20:51.692Z,1001.8
2017-05-02T03:21:32.202Z,1001.79
2017-05-02T03:22:12.711Z,1001.79
2017-05-02T03:22:53.236Z,1001.81
2017-05-02T03:23:33.745Z,1001.78
2017-05-02T03:24:14.239Z,1001.75
2017-05-02T03:24:54.746Z,1001.79
2017-05-02T03:25:35.371Z,1001.79
2017-05-02T03:26:15.844Z,1001.77
2017-05-02T03:26:56.358Z,1001.77
2017-05-02T03:27:36.856Z,1001.8
2017-05-02T03:28:17.319Z,1001.79
2017-05-02T03:28:57.852Z,1001.78
2017-05-02T03:29:38.339Z,1001.81
2017-05-02T03:30:18.805Z,1001.86
2017-05-02T03:30:59.309Z,1001.85
2017-05-02T03:31:39.820Z,1001.82
2017-05-02T03:32:20.317Z,1001.81
2017-05-02T03:33:00.850Z,1001.85
2017-05-02T03:33:41.327Z,1001.84
2017-05-02T03:34:21.819Z,1001.88
2017-05-02T03:35:02.339Z,1001.89
2017-05-02T03:35:42.854Z,1001.9
2017-05-02T03:36:23.409Z,1001.9
2017-05-02T03:37:03.919Z,1001.87
2017-05-02T03:37:44.437Z,1001.86
2017-05-02T03:38:25.023Z,1001.9
2017-05-02T03:39:05.543Z,1001.92
2017-05-02T03:39:46.067Z,1001.9
2017-05-02T03:40:26.561Z,1001.9
2017-05-02T03:41:07.100Z,1001.87
2017-05-02T03:41:47.605Z,1001.87
2017-05-02T03:42:28.111Z,1001.87
2017-05-02T03:43:08.609Z,1001.86
2017-05-02T03:43:49.108Z,1001.89
2017-05-02T03:44:29.601Z,1001.89
2017-05-02T03:45:10.119Z,1001.9
2017-05-02T03:45:50.611Z,1001.9
2017-05-02T03:46:31.142Z,1001.88
2017-05-02T03:47:11.624Z,1001.91
2017-05-02T03:47:52.125Z,1001.89
2017-05-02T03:48:32.626Z,1001.84
2017-05-02T03:49:13.141Z,1001.8
2017-05-02T03:49:53.834Z,1001.88
2017-05-02T03:50:34.564Z,1001.86
2017-05-02T03:51:15.039Z,1001.84
2017-05-02T03:51:55.548Z,1001.8
2017-05-02T03:52:36.055Z,1001.83
2017-05-02T03:53:16.529Z,1001.88
2017-05-02T03:53:57.078Z,1001.88
2017-05-02T03:54:38.193Z,1001.9
2017-05-02T03:55:18.617Z,1001.89
2017-05-02T03:55:59.124Z,1001.88
2017-05-02T03:56:39.673Z,1001.82
2017-05-02T03:57:20.180Z,1001.9
2017-05-02T03:58:00.689Z,1001.88
2017-05-02T03:58:41.218Z,1001.86
2017-05-02T03:59:21.714Z,1001.91
2017-05-02T04:00:02.220Z,1001.85
2017-05-02T04:00:42.748Z,1001.86
2017-05-02T04:01:23.236Z,1001.87
2017-05-02T04:02:03.766Z,1001.86
2017-05-02T04:02:44.260Z,1001.89
2017-05-02T04:03:24.738Z,1001.83
2017-05-02T04:04:05.245Z,1001.85
2017-05-02T04:04:45.754Z,1001.88
2017-05-02T04:05:26.261Z,1001.87
2017-05-02T04:06:06.735Z,1001.88
2017-05-02T04:06:47.242Z,1001.91
2017-05-02T04:07:27.711Z,1001.88
2017-05-02T04:08:08.205Z,1001.9
2017-05-02T04:08:48.698Z,1001.95
2017-05-02T04:09:29.187Z,1001.9
2017-05-02T04:10:09.673Z,1001.94
2017-05-02T04:10:50.171Z,1001.94
2017-05-02T04:11:30.678Z,1001.93
2017-05-02T04:12:11.199Z,1001.93
2017-05-02T04:12:51.665Z,1001.97
2017-05-02T04:13:32.137Z,1001.97
2017-05-02T04:14:12.656Z,1001.93
2017-05-02T04:14:53.156Z,1001.91
2017-05-02T04:15:33.636Z,1001.94
2017-05-02T04:16:14.138Z,1001.91
2017-05-02T04:16:54.631Z,1001.95
2017-05-02T04:17:35.080Z,1001.99
2017-05-02T04:18:15.596Z,1001.97
2017-05-02T04:18:56.106Z,1002.02
2017-05-02T04:19:36.618Z,1001.99
2017-05-02T04:20:17.121Z,1002
2017-05-02T04:20:57.653Z,1001.99
2017-05-02T04:21:38.154Z,1001.95
2017-05-02T04:22:18.704Z,1002
2017-05-02T04:22:59.171Z,1002.01
2017-05-02T04:23:39.681Z,1001.97
2017-05-02T04:24:20.199Z,1001.97
2017-05-02T04:25:00.727Z,1001.94
2017-05-02T04:25:41.256Z,1002
2017-05-02T04:26:21.767Z,1001.99
2017-05-02T04:27:02.443Z,1001.97
2017-05-02T04:27:42.956Z,1002.03
2017-05-02T04:28:23.462Z,1002.03
2017-05-02T04:29:03.961Z,1002.09
2017-05-02T04:29:44.478Z,1002.01
2017-05-02T04:30:24.980Z,1002.03
2017-05-02T04:31:05.497Z,1002.02
2017-05-02T04:31:46.006Z,1002.03
2017-05-02T04:32:26.521Z,1002.05
2017-05-02T04:33:07.026Z,1002.02
2017-05-02T04:33:47.545Z,1002.03
2017-05-02T04:34:28.069Z,1002.05
2017-05-02T04:35:08.571Z,1002.01
2017-05-02T04:35:49.114Z,1002.03
2017-05-02T04:36:29.602Z,1002
2017-05-02T04:37:10.118Z,1002.03
2017-05-02T04:37:50.633Z,1001.98
2017-05-02T04:38:31.134Z,1001.98
2017-05-02T04:39:11.647Z,1002.01
2017-05-02T04:39:52.147Z,1002.02
2017-05-02T04:40:32.658Z,1002.01
2017-05-02T04:41:13.164Z,1002.02
2017-05-02T04:41:53.686Z,1002.04
2017-05-02T04:42:34.208Z,1002.02
2017-05-02T04:43:14.716Z,1001.99
2017-05-02T04:43:55.236Z,1002.06
2017-05-02T04:44:35.757Z,1001.98
2017-05-02T04:45:16.281Z,1002.05
2017-05-02T04:45:56.769Z,1002.06
2017-05-02T04:46:37.282Z,1002.02
2017-05-02T04:47:17.787Z,1002.05
2017-05-02T04:47:58.314Z,1002.08
2017-05-02T04:48:38.813Z,1002.05
2017-05-02T04:49:19.339Z,1002.08
2017-05-02T04:49:59.868Z,1002.06
2017-05-02T04:50:40.371Z,1002.06
2017-05-02T04:51:20.897Z,1002.04
2017-05-02T04:52:01.426Z,1002.06
2017-05-02T04:52:41.940Z,1002.06
2017-05-02T04:53:22.449Z,1002.05
2017-05-02T04:54:02.971Z,1002.08
2017-05-02T04:54:43.465Z,1002.1
2017-05-02T04:55:23.996Z,1002.09
2017-05-02T04:56:04.513Z,1002.09
2017-05-02T04:56:45.023Z,1002.04
2017-05-02T04:57:25.540Z,1002.07
2017-05-02T04:58:06.062Z,1002.11
2017-05-02T04:58:46.563Z,1002.08
2017-05-02T04:59:27.075Z,1002.05
2017-05-02T05:00:07.585Z,1002.09
2017-05-02T05:00:48.097Z,1002.05
2017-05-02T05:01:28.619Z,1002.07
2017-05-02T05:02:09.111Z,1002.1
2017-05-02T05:02:49.627Z,1002.07
2017-05-02T05:03:30.141Z,1002.07
2017-05-02T05:04:10.597Z,1002.06
2017-05-02T05:04:51.130Z,1002.06
2017-05-02T05:05:31.615Z,1002.07
2017-05-02T05:06:12.106Z,1002.17
2017-05-02T05:06:52.676Z,1002.12
2017-05-02T05:07:33.183Z,1002.15
2017-05-02T05:08:13.659Z,1002.1
2017-05-02T05:08:54.164Z,1002.09
2017-05-02T05:09:34.708Z,1002.09
2017-05-02T05:10:15.140Z,1002.15
2017-05-02T05:10:55.645Z,1002.13
2017-05-02T05:11:36.126Z,1002.16
2017-05-02T05:12:16.611Z,1002.16
2017-05-02T05:12:57.127Z,1002.14
2017-05-02T05:13:37.627Z,1002.09
2017-05-02T05:14:18.145Z,1002.19
2017-05-02T05:14:58.594Z,1002.17
2017-05-02T05:15:39.077Z,1002.18
2017-05-02T05:16:19.601Z,1002.2
2017-05-02T05:17:00.097Z,1002.15
2017-05-02T05:17:40.544Z,1002.17
2017-05-02T05:18:21.021Z,1002.23
2017-05-02T05:19:01.577Z,1002.2
2017-05-02T05:19:42.009Z,1002.18
2017-05-02T05:20:22.669Z,1002.17
2017-05-02T05:21:03.187Z,1002.16
2017-05-02T05:21:43.699Z,1002.18
2017-05-02T05:22:24.160Z,1002.16
2017-05-02T05:23:04.718Z,1002.14
2017-05-02T05:23:45.162Z,1002.15
2017-05-02T05:24:25.649Z,1002.15
2017-05-02T05:25:06.244Z,1002.14
2017-05-02T05:25:46.689Z,1002.13
2017-05-02T05:26:27.194Z,1002.16
2017-05-02T05:28:25.433Z,1002.16
2017-05-02T05:29:05.937Z,1002.14
2017-05-02T05:29:46.432Z,1002.15
2017-05-02T05:30:26.955Z,1002.14
2017-05-02T05:31:07.436Z,1002.12
2017-05-02T05:31:47.974Z,1002.13
2017-05-02T05:32:28.419Z,1002.14
2017-05-02T05:33:08.904Z,1002.18
2017-05-02T05:33:49.404Z,1002.14
2017-05-02T05:34:30.143Z,1002.14
2017-05-02T05:35:10.641Z,1002.17
2017-05-02T05:35:51.310Z,1002.13
2017-05-02T05:36:31.837Z,1002.07
2017-05-02T05:37:12.373Z,1002.12
2017-05-02T05:37:52.853Z,1002.12
2017-05-02T05:38:33.278Z,1002.08
2017-05-02T05:39:13.773Z,1002.1
2017-05-02T05:39:54.265Z,1002.08
2017-05-02T05:40:34.768Z,1002.1
2017-05-02T05:41:15.626Z,1002.09
2017-05-02T05:41:56.328Z,1002.14
2017-05-02T05:42:36.715Z,1002.1
2017-05-02T05:43:17.193Z,1002.09
2017-05-02T05:43:57.761Z,1002.09
2017-05-02T05:44:38.216Z,1002.14
2017-05-02T05:45:19.073Z,1002.12
2017-05-02T05:45:59.333Z,1002.14
2017-05-02T05:46:40.056Z,1002.17
2017-05-02T05:47:20.623Z,1002.1
2017-05-02T05:48:02.245Z,1002.1
2017-05-02T05:48:42.796Z,1002.14
2017-05-02T05:49:23.453Z,1002.11
2017-05-02T05:50:04.062Z,1002.08
2017-05-02T05:50:44.807Z,1002.07
2017-05-02T05:51:25.452Z,1002.12
2017-05-02T05:52:06.029Z,1002.1
2017-05-02T05:52:46.518Z,1002.11
2017-05-02T05:53:27.034Z,1002.09
2017-05-02T05:54:07.471Z,1002.11
2017-05-02T05:54:48.015Z,1002.17
2017-05-02T05:55:28.471Z,1002.14
2017-05-02T05:56:08.965Z,1002.16
2017-05-02T05:56:49.465Z,1002.12
2017-05-02T05:57:29.943Z,1002.12
2017-05-02T05:58:10.511Z,1002.16
2017-05-02T05:58:50.936Z,1002.12
2017-05-02T05:59:31.453Z,1002.16
2017-05-02T06:00:12.005Z,1002.15
2017-05-02T06:00:52.497Z,1002.16
2017-05-02T06:01:33.017Z,1002.14
2017-05-02T06:02:13.448Z,1002.16
2017-05-02T06:02:53.951Z,1002.15
2017-05-02T06:03:34.474Z,1002.17
2017-05-02T06:04:15.049Z,1002.16
2017-05-02T06:04:55.729Z,1002.15
2017-05-02T06:05:36.227Z,1002.16
2017-05-02T06:06:16.889Z,1002.19
2017-05-02T06:06:57.373Z,1002.17
2017-05-02T06:07:37.862Z,1002.2
2017-05-02T06:08:18.392Z,1002.18
2017-05-02T06:08:58.908Z,1002.19
2017-05-02T06:09:39.402Z,1002.21
2017-05-02T06:10:19.907Z,1002.18
2017-05-02T06:11:00.502Z,1002.2
2017-05-02T06:11:40.943Z,1002.21
2017-05-02T06:12:21.450Z,1002.16
2017-05-02T06:13:01.950Z,1002.19
2017-05-02T06:13:42.466Z,1002.25
2017-05-02T06:14:23.404Z,1002.21
2017-05-02T06:15:03.937Z,1002.2
2017-05-02T06:15:44.439Z,1002.2
2017-05-02T06:16:24.968Z,1002.2
2017-05-02T06:17:05.464Z,1002.19
2017-05-02T06:17:46.008Z,1002.23
2017-05-02T06:18:26.509Z,1002.18
2017-05-02T06:19:07.018Z,1002.19
2017-05-02T06:19:47.576Z,1002.13
2017-05-02T06:20:28.108Z,1002.21
2017-05-02T06:21:08.616Z,1002.12
2017-05-02T06:21:49.118Z,1002.14
2017-05-02T06:22:29.628Z,1002.17
2017-05-02T06:23:10.157Z,1002.08
2017-05-02T06:23:50.664Z,1002.11
2017-05-02T06:24:31.169Z,1002.13
2017-05-02T06:25:11.679Z,1002.13
2017-05-02T06:25:52.203Z,1002.13
2017-05-02T06:26:32.704Z,1002.16
2017-05-02T06:27:13.216Z,1002.15
2017-05-02T06:27:53.773Z,1002.1
2017-05-02T06:28:34.249Z,1002.15
2017-05-02T06:29:14.753Z,1002.11
2017-05-02T06:29:55.274Z,1002.14
2017-05-02T06:30:35.781Z,1002.14
2017-05-02T06:31:16.299Z,1002.16
2017-05-02T06:31:56.818Z,1002.11
2017-05-02T06:32:37.278Z,1002.16
2017-05-02T06:33:17.788Z,1002.12
2017-05-02T06:33:58.293Z,1002.21
2017-05-02T06:34:38.913Z,1002.2
2017-05-02T06:35:19.502Z,1002.18
2017-05-02T06:36:00.000Z,1002.18
2017-05-02T06:36:40.913Z,1002.2
2017-05-02T06:37:21.600Z,1002.2
2017-05-02T06:38:02.154Z,1002.16
2017-05-02T06:38:42.609Z,1002.19
2017-05-02T06:39:23.089Z,1002.17
2017-05-02T06:40:03.842Z,1002.15
2017-05-02T06:40:44.385Z,1002.13
2017-05-02T06:41:24.869Z,1002.16
2017-05-02T06:42:05.378Z,1002.15
2017-05-02T06:42:45.877Z,1002.16
2017-05-02T06:43:26.381Z,1002.15
2017-05-02T06:44:06.887Z,1002.17
2017-05-02T06:44:47.397Z,1002.17
2017-05-02T06:45:28.840Z,1002.17
2017-05-02T06:46:09.347Z,1002.14
2017-05-02T06:46:49.916Z,1002.19
2017-05-02T06:47:30.408Z,1002.2
2017-05-02T06:48:10.910Z,1002.19
2017-05-02T06:48:51.432Z,1002.15
2017-05-02T06:49:31.911Z,1002.12
2017-05-02T06:50:12.438Z,1002.16
2017-05-02T06:50:52.941Z,1002.13
2017-05-02T06:51:33.443Z,1002.16
2017-05-02T06:52:13.971Z,1002.13
2017-05-02T06:52:54.493Z,1002.12
2017-05-02T06:53:34.991Z,1002.16
2017-05-02T06:54:15.508Z,1002.16
2017-05-02T06:54:56.015Z,1002.15
2017-05-02T06:55:36.557Z,1002.14
2017-05-02T06:56:17.099Z,1002.15
2017-05-02T06:56:57.615Z,1002.16
2017-05-02T06:57:38.123Z,1002.18
2017-05-02T06:58:18.638Z,1002.18
2017-05-02T06:58:59.162Z,1002.19
2017-05-02T06:59:39.643Z,1002.2
2017-05-02T07:00:20.169Z,1002.18
2017-05-02T07:01:00.692Z,1002.18
2017-05-02T07:01:41.204Z,1002.17
2017-05-02T07:02:21.713Z,1002.12
2017-05-02T07:03:02.239Z,1002.18
2017-05-02T07:03:42.753Z,1002.08
2017-05-02T07:04:23.265Z,1002.14
2017-05-02T07:05:03.743Z,1002.07
2017-05-02T07:05:44.299Z,1002.06
2017-05-02T07:06:24.800Z,1002.1
2017-05-02T07:07:05.239Z,1002.13
2017-05-02T07:07:45.758Z,1002.08
2017-05-02T07:08:26.266Z,1002.08
2017-05-02T07:09:06.808Z,1002.06
2017-05-02T07:09:47.316Z,1002.06
2017-05-02T07:10:27.808Z,1002.08
2017-05-02T07:11:08.290Z,1002.01
2017-05-02T07:11:48.836Z,1002.05
2017-05-02T07:12:29.320Z,1002.08
2017-05-02T07:13:09.815Z,1002.08
2017-05-02T07:13:50.322Z,1002.06
2017-05-02T07:14:30.833Z,1002.1
2017-05-02T07:15:11.340Z,1002.07
2017-05-02T07:15:51.856Z,1002.09
2017-05-02T07:16:32.377Z,1002.09
2017-05-02T07:17:12.885Z,1002.08
2017-05-02T07:17:53.410Z,1002.05
2017-05-02T07:20:06.653Z,1002.04
2017-05-02T07:20:47.173Z,1002.09
2017-05-02T07:21:27.687Z,1002.08
2017-05-02T07:22:08.200Z,1002.09
2017-05-02T07:22:48.718Z,1002.04
2017-05-02T07:23:29.238Z,1002.09
2017-05-02T07:24:09.775Z,1002.08
2017-05-02T07:24:50.290Z,1002.04
2017-05-02T07:25:30.804Z,1002.07
2017-05-02T07:26:11.367Z,1002.01
2017-05-02T07:26:51.838Z,1002.05
2017-05-02T07:27:32.338Z,1002.05
2017-05-02T07:28:12.870Z,1002.06
2017-05-02T07:28:53.412Z,1002.06
2017-05-02T07:29:33.900Z,1002
2017-05-02T07:30:14.407Z,1002.06
2017-05-02T07:30:54.974Z,1002.05
2017-05-02T07:31:35.449Z,1002.09
2017-05-02T07:32:15.978Z,1002.07
2017-05-02T07:32:56.482Z,1002.1
2017-05-02T07:33:36.983Z,1002.1
2017-05-02T07:34:17.576Z,1002.07
2017-05-02T07:34:58.074Z,1002.11
2017-05-02T07:35:38.585Z,1002.1
2017-05-02T07:36:19.090Z,1002.11
2017-05-02T07:36:59.601Z,1002.12
2017-05-02T07:37:40.122Z,1002.09
2017-05-02T07:38:20.602Z,1002.14
2017-05-02T07:39:01.151Z,1002.14
2017-05-02T07:39:41.637Z,1002.1
2017-05-02T07:40:22.189Z,1002.04
2017-05-02T07:41:02.705Z,1002.05
2017-05-02T07:41:43.210Z,1002
2017-05-02T07:42:23.710Z,1002.07
2017-05-02T07:44:17.582Z,1001.98
2017-05-02T07:44:58.105Z,1002.02
2017-05-02T07:45:38.627Z,1002.03
2017-05-02T07:46:19.145Z,1002.04
2017-05-02T07:46:59.644Z,1002.02
2017-05-02T07:47:40.162Z,1002.06
2017-05-02T07:48:20.667Z,1002.05
2017-05-02T07:49:01.187Z,1001.96
2017-05-02T07:49:41.706Z,1001.94
2017-05-02T07:50:22.210Z,1002.02
2017-05-02T07:51:02.743Z,1002.02
2017-05-02T07:51:43.196Z,1002.01
2017-05-02T07:52:23.766Z,1002.01
2017-05-02T07:53:04.234Z,1002.04
2017-05-02T07:53:44.748Z,1002.03
2017-05-02T07:54:25.260Z,1001.99
2017-05-02T07:55:05.765Z,1002
2017-05-02T07:55:46.261Z,1002.02
2017-05-02T07:56:26.770Z,1002.02
2017-05-02T07:57:07.263Z,1002.01
2017-05-02T07:57:47.784Z,1002
2017-05-02T07:58:28.307Z,1002.04
2017-05-02T07:59:08.835Z,1002.01
2017-05-02T07:59:49.458Z,1001.97
2017-05-02T08:00:31.453Z,1001.98
2017-05-02T08:01:11.651Z,1001.97
2017-05-02T08:01:52.167Z,1002
2017-05-02T08:02:32.716Z,1002.01
2017-05-02T08:03:13.415Z,1001.97
2017-05-02T08:05:06.570Z,1001.98
2017-05-02T08:05:47.089Z,1002.01
2017-05-02T08:06:27.614Z,1002
2017-05-02T08:07:08.132Z,1002.03
2017-05-02T08:07:48.654Z,1001.97
2017-05-02T08:08:29.159Z,1001.99
2017-05-02T08:09:09.708Z,1002.02
2017-05-02T08:09:50.304Z,1001.97
2017-05-02T08:10:30.854Z,1002
2017-05-02T08:11:11.356Z,1001.98
2017-05-02T08:11:51.866Z,1001.98
2017-05-02T08:12:32.509Z,1001.98
2017-05-02T08:13:13.040Z,1001.97
2017-05-02T08:13:53.545Z,1001.99
2017-05-02T08:14:34.219Z,1002.03
2017-05-02T08:15:14.764Z,1002.02
2017-05-02T08:15:55.264Z,1002.08
2017-05-02T08:16:35.764Z,1002.07
2017-05-02T08:17:16.287Z,1001.99
2017-05-02T08:17:56.828Z,1002.03